sensor_id;sensor_type;location;lat;lon;timestamp;pressure;altitude;pressure_sealevel;temperature;humidity
16834;BME280;8533;48.426;10.868;2022-11-21T00:01:18;95377.99;;;3.61;100.00
16834;BME280;8533;48.426;10.868;2022-11-21T00:03:43;95378.11;;;3.66;100.00
16834;BME280;8533;48.426;10.868;2022-11-21T00:06:10;95374.52;;;3.67;100.00
16834;BME280;8533;48.426;10.868;2022-11-21T00:08:38;95376.75;;;3.73;100.00
16834;BME280;8533;48.426;10.868;2022-11-21T00:11:05;95360.20;;;3.74;100.00
16834;BME280;8533;48.426;10.868;2022-11-21T00:13:33;95373.41;;;3.75;100.00
16834;BME280;8533;48.426;10.868;2022-11-21T00:16:11;95369.61;;;3.77;100.00
16834;BME280;8533;48.426;10.868;2022-11-21T00:18:34;95370.04;;;3.74;100.00
16834;BME280;8533;48.426;10.868;2022-11-21T00:21:06;95371.11;;;3.76;100.00
16834;BME280;8533;48.426;10.868;2022-11-21T00:23:37;95370.28;;;3.73;100.00
16834;BME280;8533;48.426;10.868;2022-11-21T00:26:06;95390.73;;;3.74;100.00
16834;BME280;8533;48.426;10.868;2022-11-21T00:28:34;95389.72;;;3.75;100.00
16834;BME280;8533;48.426;10.868;2022-11-21T00:31:02;95392.09;;;3.77;100.00
16834;BME280;8533;48.426;10.868;2022-11-21T00:33:31;95391.38;;;3.79;100.00
16834;BME280;8533;48.426;10.868;2022-11-21T00:36:04;95387.78;;;3.80;100.00
16834;BME280;8533;48.426;10.868;2022-11-21T00:38:32;95387.33;;;3.83;100.00
16834;BME280;8533;48.426;10.868;2022-11-21T00:41:00;95386.32;;;3.84;100.00
16834;BME280;8533;48.426;10.868;2022-11-21T00:43:27;95385.02;;;3.84;100.00
16834;BME280;8533;48.426;10.868;2022-11-21T00:45:55;95383.73;;;3.84;100.00
16834;BME280;8533;48.426;10.868;2022-11-21T00:48:23;95382.61;;;3.80;100.00
16834;BME280;8533;48.426;10.868;2022-11-21T00:50:51;95377.58;;;3.76;100.00
16834;BME280;8533;48.426;10.868;2022-11-21T00:53:18;95388.09;;;3.72;100.00
16834;BME280;8533;48.426;10.868;2022-11-21T00:55:46;95384.58;;;3.66;100.00
16834;BME280;8533;48.426;10.868;2022-11-21T00:58:13;95387.04;;;3.61;100.00
16834;BME280;8533;48.426;10.868;2022-11-21T01:00:40;95392.42;;;3.60;100.00
16834;BME280;8533;48.426;10.868;2022-11-21T01:03:08;95388.47;;;3.57;100.00
16834;BME280;8533;48.426;10.868;2022-11-21T01:05:35;95394.60;;;3.54;100.00
16834;BME280;8533;48.426;10.868;2022-11-21T01:08:03;95395.68;;;3.55;100.00
16834;BME280;8533;48.426;10.868;2022-11-21T01:10:30;95398.41;;;3.51;100.00
16834;BME280;8533;48.426;10.868;2022-11-21T01:12:58;95390.65;;;3.51;100.00
16834;BME280;8533;48.426;10.868;2022-11-21T01:15:25;95389.31;;;3.49;100.00
16834;BME280;8533;48.426;10.868;2022-11-21T01:17:53;95390.03;;;3.47;100.00
16834;BME280;8533;48.426;10.868;2022-11-21T01:20:20;95383.70;;;3.42;100.00
16834;BME280;8533;48.426;10.868;2022-11-21T01:22:47;95376.69;;;3.40;100.00
16834;BME280;8533;48.426;10.868;2022-11-21T01:25:15;95376.45;;;3.42;100.00
16834;BME280;8533;48.426;10.868;2022-11-21T01:27:42;95377.31;;;3.45;100.00
16834;BME280;8533;48.426;10.868;2022-11-21T01:30:10;95379.98;;;3.48;100.00
16834;BME280;8533;48.426;10.868;2022-11-21T01:32:40;95378.52;;;3.52;100.00
16834;BME280;8533;48.426;10.868;2022-11-21T01:35:07;95381.51;;;3.58;100.00
16834;BME280;8533;48.426;10.868;2022-11-21T01:37:35;95368.66;;;3.60;100.00
16834;BME280;8533;48.426;10.868;2022-11-21T01:40:03;95379.36;;;3.64;100.00
16834;BME280;8533;48.426;10.868;2022-11-21T01:54:26;95339.25;;;3.73;100.00
16834;BME280;8533;48.426;10.868;2022-11-21T01:57:03;95339.08;;;3.77;100.00
16834;BME280;8533;48.426;10.868;2022-11-21T01:59:31;95337.86;;;3.79;100.00
16834;BME280;8533;48.426;10.868;2022-11-21T02:02:00;95331.17;;;3.81;100.00
16834;BME280;8533;48.426;10.868;2022-11-21T02:04:30;95328.34;;;3.82;100.00
16834;BME280;8533;48.426;10.868;2022-11-21T02:07:00;95323.74;;;3.84;100.00
16834;BME280;8533;48.426;10.868;2022-11-21T02:09:29;95316.77;;;3.85;100.00
16834;BME280;8533;48.426;10.868;2022-11-21T02:12:00;95321.73;;;3.87;100.00
16834;BME280;8533;48.426;10.868;2022-11-21T02:14:28;95314.41;;;3.83;100.00
16834;BME280;8533;48.426;10.868;2022-11-21T02:16:58;95310.52;;;3.83;100.00
16834;BME280;8533;48.426;10.868;2022-11-21T02:19:36;95312.53;;;3.81;100.00
16834;BME280;8533;48.426;10.868;2022-11-21T02:22:14;95314.52;;;3.77;100.00
16834;BME280;8533;48.426;10.868;2022-11-21T02:24:45;95306.75;;;3.77;100.00
16834;BME280;8533;48.426;10.868;2022-11-21T02:27:12;95304.38;;;3.75;100.00
16834;BME280;8533;48.426;10.868;2022-11-21T02:29:40;95304.56;;;3.71;100.00
16834;BME280;8533;48.426;10.868;2022-11-21T02:32:19;95298.31;;;3.70;100.00
16834;BME280;8533;48.426;10.868;2022-11-21T02:34:39;95303.20;;;3.69;100.00
16834;BME280;8533;48.426;10.868;2022-11-21T02:37:08;95294.58;;;3.66;100.00
16834;BME280;8533;48.426;10.868;2022-11-21T02:39:36;95296.63;;;3.64;100.00
16834;BME280;8533;48.426;10.868;2022-11-21T02:42:20;95293.89;;;3.59;100.00
16834;BME280;8533;48.426;10.868;2022-11-21T02:44:59;95289.23;;;3.58;100.00
16834;BME280;8533;48.426;10.868;2022-11-21T02:47:25;95280.18;;;3.58;100.00
16834;BME280;8533;48.426;10.868;2022-11-21T02:50:13;95267.94;;;3.65;100.00
16834;BME280;8533;48.426;10.868;2022-11-21T02:52:38;95267.28;;;3.70;100.00
16834;BME280;8533;48.426;10.868;2022-11-21T02:55:06;95270.02;;;3.66;100.00
16834;BME280;8533;48.426;10.868;2022-11-21T02:57:34;95261.36;;;3.60;100.00
16834;BME280;8533;48.426;10.868;2022-11-21T03:00:01;95256.98;;;3.61;100.00
16834;BME280;8533;48.426;10.868;2022-11-21T03:02:28;95250.52;;;3.61;100.00
16834;BME280;8533;48.426;10.868;2022-11-21T03:04:56;95246.36;;;3.60;100.00
16834;BME280;8533;48.426;10.868;2022-11-21T03:07:23;95246.14;;;3.61;100.00
16834;BME280;8533;48.426;10.868;2022-11-21T03:09:51;95245.06;;;3.60;100.00
16834;BME280;8533;48.426;10.868;2022-11-21T03:12:18;95250.59;;;3.63;100.00
16834;BME280;8533;48.426;10.868;2022-11-21T03:14:45;95254.79;;;3.67;100.00
16834;BME280;8533;48.426;10.868;2022-11-21T03:17:13;95250.48;;;3.70;100.00
16834;BME280;8533;48.426;10.868;2022-11-21T03:19:40;95245.59;;;3.71;100.00
16834;BME280;8533;48.426;10.868;2022-11-21T03:22:08;95245.41;;;3.75;100.00
16834;BME280;8533;48.426;10.868;2022-11-21T03:24:35;95241.88;;;3.78;100.00
16834;BME280;8533;48.426;10.868;2022-11-21T03:27:03;95257.00;;;3.84;100.00
16834;BME280;8533;48.426;10.868;2022-11-21T03:29:30;95251.61;;;3.86;100.00
16834;BME280;8533;48.426;10.868;2022-11-21T03:31:58;95254.02;;;3.90;100.00
16834;BME280;8533;48.426;10.868;2022-11-21T03:34:25;95248.52;;;3.86;100.00
16834;BME280;8533;48.426;10.868;2022-11-21T03:36:53;95252.47;;;3.89;100.00
16834;BME280;8533;48.426;10.868;2022-11-21T03:39:20;95245.75;;;3.90;100.00
16834;BME280;8533;48.426;10.868;2022-11-21T03:41:47;95244.45;;;3.90;100.00
16834;BME280;8533;48.426;10.868;2022-11-21T03:44:15;95236.49;;;3.80;100.00
16834;BME280;8533;48.426;10.868;2022-11-21T03:46:44;95244.95;;;3.90;100.00
16834;BME280;8533;48.426;10.868;2022-11-21T03:49:13;95247.55;;;3.90;100.00
16834;BME280;8533;48.426;10.868;2022-11-21T03:51:43;95246.00;;;3.89;100.00
16834;BME280;8533;48.426;10.868;2022-11-21T03:54:11;95245.65;;;3.85;100.00
16834;BME280;8533;48.426;10.868;2022-11-21T03:56:38;95242.95;;;3.80;100.00
16834;BME280;8533;48.426;10.868;2022-11-21T03:59:06;95250.43;;;3.79;100.00
16834;BME280;8533;48.426;10.868;2022-11-21T04:01:33;95241.81;;;3.76;100.00
16834;BME280;8533;48.426;10.868;2022-11-21T04:04:01;95242.28;;;3.73;100.00
16834;BME280;8533;48.426;10.868;2022-11-21T04:06:28;95231.23;;;3.66;100.00
16834;BME280;8533;48.426;10.868;2022-11-21T04:08:58;95231.98;;;3.64;100.00
16834;BME280;8533;48.426;10.868;2022-11-21T04:11:25;95232.53;;;3.54;100.00
16834;BME280;8533;48.426;10.868;2022-11-21T04:13:53;95242.59;;;3.53;100.00
16834;BME280;8533;48.426;10.868;2022-11-21T04:16:20;95231.89;;;3.50;100.00
16834;BME280;8533;48.426;10.868;2022-11-21T04:18:47;95229.98;;;3.45;100.00
16834;BME280;8533;48.426;10.868;2022-11-21T04:21:15;95226.61;;;3.44;100.00
16834;BME280;8533;48.426;10.868;2022-11-21T04:23:42;95216.45;;;3.40;100.00
16834;BME280;8533;48.426;10.868;2022-11-21T04:26:10;95215.88;;;3.38;100.00
16834;BME280;8533;48.426;10.868;2022-11-21T04:28:37;95217.31;;;3.34;100.00
16834;BME280;8533;48.426;10.868;2022-11-21T04:31:06;95216.03;;;3.34;100.00
16834;BME280;8533;48.426;10.868;2022-11-21T04:33:34;95210.58;;;3.33;100.00
16834;BME280;8533;48.426;10.868;2022-11-21T04:36:01;95209.28;;;3.33;100.00
16834;BME280;8533;48.426;10.868;2022-11-21T04:38:29;95211.86;;;3.33;100.00
16834;BME280;8533;48.426;10.868;2022-11-21T04:40:56;95206.27;;;3.36;100.00
16834;BME280;8533;48.426;10.868;2022-11-21T04:43:24;95210.25;;;3.41;100.00
16834;BME280;8533;48.426;10.868;2022-11-21T04:45:51;95208.73;;;3.43;100.00
16834;BME280;8533;48.426;10.868;2022-11-21T04:48:18;95209.02;;;3.44;100.00
16834;BME280;8533;48.426;10.868;2022-11-21T04:50:46;95203.20;;;3.49;100.00
16834;BME280;8533;48.426;10.868;2022-11-21T04:53:13;95197.34;;;3.53;100.00
16834;BME280;8533;48.426;10.868;2022-11-21T04:55:41;95206.18;;;3.55;100.00
16834;BME280;8533;48.426;10.868;2022-11-21T04:58:08;95210.38;;;3.58;100.00
16834;BME280;8533;48.426;10.868;2022-11-21T05:00:35;95204.48;;;3.60;100.00
16834;BME280;8533;48.426;10.868;2022-11-21T05:03:06;95203.09;;;3.55;100.00
16834;BME280;8533;48.426;10.868;2022-11-21T05:05:33;95201.66;;;3.50;100.00
16834;BME280;8533;48.426;10.868;2022-11-21T05:08:01;95192.73;;;3.43;100.00
16834;BME280;8533;48.426;10.868;2022-11-21T05:10:28;95193.70;;;3.40;100.00
16834;BME280;8533;48.426;10.868;2022-11-21T05:12:58;95198.51;;;3.36;100.00
16834;BME280;8533;48.426;10.868;2022-11-21T05:15:43;95200.81;;;3.35;100.00
16834;BME280;8533;48.426;10.868;2022-11-21T05:18:11;95197.94;;;3.34;100.00
16834;BME280;8533;48.426;10.868;2022-11-21T05:20:38;95199.45;;;3.33;100.00
16834;BME280;8533;48.426;10.868;2022-11-21T05:23:05;95203.06;;;3.32;100.00
16834;BME280;8533;48.426;10.868;2022-11-21T05:25:33;95211.08;;;3.33;100.00
16834;BME280;8533;48.426;10.868;2022-11-21T05:28:00;95207.27;;;3.35;100.00
16834;BME280;8533;48.426;10.868;2022-11-21T05:30:28;95202.67;;;3.37;100.00
16834;BME280;8533;48.426;10.868;2022-11-21T05:32:55;95207.13;;;3.39;100.00
16834;BME280;8533;48.426;10.868;2022-11-21T05:35:22;95202.17;;;3.38;100.00
16834;BME280;8533;48.426;10.868;2022-11-21T05:37:55;95203.78;;;3.41;100.00
16834;BME280;8533;48.426;10.868;2022-11-21T05:40:23;95201.77;;;3.43;100.00
16834;BME280;8533;48.426;10.868;2022-11-21T05:42:51;95204.53;;;3.39;100.00
16834;BME280;8533;48.426;10.868;2022-11-21T05:45:36;95209.42;;;3.38;100.00
16834;BME280;8533;48.426;10.868;2022-11-21T05:48:04;95213.52;;;3.37;100.00
16834;BME280;8533;48.426;10.868;2022-11-21T05:50:35;95217.11;;;3.36;100.00
16834;BME280;8533;48.426;10.868;2022-11-21T05:53:03;95206.27;;;3.36;100.00
16834;BME280;8533;48.426;10.868;2022-11-21T05:55:33;95212.44;;;3.35;100.00
16834;BME280;8533;48.426;10.868;2022-11-21T05:58:00;95216.67;;;3.39;100.00
16834;BME280;8533;48.426;10.868;2022-11-21T06:00:28;95212.44;;;3.35;100.00
16834;BME280;8533;48.426;10.868;2022-11-21T06:02:56;95209.02;;;3.32;100.00
16834;BME280;8533;48.426;10.868;2022-11-21T06:05:41;95213.16;;;3.33;100.00
16834;BME280;8533;48.426;10.868;2022-11-21T06:08:09;95210.47;;;3.28;100.00
16834;BME280;8533;48.426;10.868;2022-11-21T06:10:36;95206.23;;;3.25;100.00
16834;BME280;8533;48.426;10.868;2022-11-21T06:13:04;95206.48;;;3.23;100.00
16834;BME280;8533;48.426;10.868;2022-11-21T06:15:33;95211.86;;;3.22;100.00
16834;BME280;8533;48.426;10.868;2022-11-21T06:18:00;95208.48;;;3.21;100.00
16834;BME280;8533;48.426;10.868;2022-11-21T06:20:28;95210.67;;;3.15;100.00
16834;BME280;8533;48.426;10.868;2022-11-21T06:22:55;95207.52;;;3.13;100.00
16834;BME280;8533;48.426;10.868;2022-11-21T06:25:22;95211.10;;;3.12;100.00
16834;BME280;8533;48.426;10.868;2022-11-21T06:27:50;95205.94;;;3.12;100.00
16834;BME280;8533;48.426;10.868;2022-11-21T06:30:17;95211.78;;;3.08;100.00
16834;BME280;8533;48.426;10.868;2022-11-21T06:32:45;95214.07;;;3.06;100.00
16834;BME280;8533;48.426;10.868;2022-11-21T06:35:12;95208.16;;;3.08;100.00
16834;BME280;8533;48.426;10.868;2022-11-21T06:37:40;95213.90;;;3.11;100.00
16834;BME280;8533;48.426;10.868;2022-11-21T06:40:09;95207.52;;;3.13;100.00
16834;BME280;8533;48.426;10.868;2022-11-21T06:42:37;95212.51;;;3.17;100.00
16834;BME280;8533;48.426;10.868;2022-11-21T06:45:04;95211.28;;;3.20;100.00
16834;BME280;8533;48.426;10.868;2022-11-21T06:47:35;95222.41;;;3.20;100.00
16834;BME280;8533;48.426;10.868;2022-11-21T06:50:02;95230.33;;;3.16;100.00
16834;BME280;8533;48.426;10.868;2022-11-21T06:52:31;95224.59;;;3.14;100.00
16834;BME280;8533;48.426;10.868;2022-11-21T06:54:59;95226.67;;;3.15;100.00
16834;BME280;8533;48.426;10.868;2022-11-21T06:57:26;95230.27;;;3.14;100.00
16834;BME280;8533;48.426;10.868;2022-11-21T06:59:54;95234.14;;;3.14;100.00
16834;BME280;8533;48.426;10.868;2022-11-21T07:02:21;95236.94;;;3.12;100.00
16834;BME280;8533;48.426;10.868;2022-11-21T07:04:49;95233.56;;;3.12;100.00
16834;BME280;8533;48.426;10.868;2022-11-21T07:07:16;95238.94;;;3.10;100.00
16834;BME280;8533;48.426;10.868;2022-11-21T07:09:43;95237.61;;;3.08;100.00
16834;BME280;8533;48.426;10.868;2022-11-21T07:12:12;95238.94;;;3.10;100.00
16834;BME280;8533;48.426;10.868;2022-11-21T07:14:44;95245.36;;;3.08;100.00
16834;BME280;8533;48.426;10.868;2022-11-21T07:17:12;95246.07;;;3.05;100.00
16834;BME280;8533;48.426;10.868;2022-11-21T07:19:40;95247.66;;;3.06;100.00
16834;BME280;8533;48.426;10.868;2022-11-21T07:22:07;95248.44;;;3.07;100.00
16834;BME280;8533;48.426;10.868;2022-11-21T07:24:35;95254.73;;;3.11;100.00
16834;BME280;8533;48.426;10.868;2022-11-21T07:27:02;95248.84;;;3.13;100.00
16834;BME280;8533;48.426;10.868;2022-11-21T07:29:29;95250.71;;;3.15;100.00
16834;BME280;8533;48.426;10.868;2022-11-21T07:31:57;95252.02;;;3.27;100.00
16834;BME280;8533;48.426;10.868;2022-11-21T07:34:24;95256.55;;;3.31;100.00
16834;BME280;8533;48.426;10.868;2022-11-21T07:36:52;95251.59;;;3.30;100.00
16834;BME280;8533;48.426;10.868;2022-11-21T07:39:19;95254.17;;;3.30;100.00
16834;BME280;8533;48.426;10.868;2022-11-21T07:41:47;95256.05;;;3.32;100.00
16834;BME280;8533;48.426;10.868;2022-11-21T07:44:14;95263.22;;;3.30;100.00
16834;BME280;8533;48.426;10.868;2022-11-21T07:46:42;95259.67;;;3.33;100.00
16834;BME280;8533;48.426;10.868;2022-11-21T07:49:09;95262.05;;;3.35;100.00
16834;BME280;8533;48.426;10.868;2022-11-21T07:51:36;95260.03;;;3.37;100.00
16834;BME280;8533;48.426;10.868;2022-11-21T07:54:04;95263.41;;;3.37;100.00
16834;BME280;8533;48.426;10.868;2022-11-21T07:56:31;95263.48;;;3.40;100.00
16834;BME280;8533;48.426;10.868;2022-11-21T07:58:59;95262.58;;;3.46;100.00
16834;BME280;8533;48.426;10.868;2022-11-21T08:01:26;95266.28;;;3.50;100.00
16834;BME280;8533;48.426;10.868;2022-11-21T08:03:54;95266.06;;;3.52;100.00
16834;BME280;8533;48.426;10.868;2022-11-21T08:06:21;95265.06;;;3.53;100.00
16834;BME280;8533;48.426;10.868;2022-11-21T08:08:53;95270.59;;;3.56;100.00
16834;BME280;8533;48.426;10.868;2022-11-21T08:11:21;95270.19;;;3.62;100.00
16834;BME280;8533;48.426;10.868;2022-11-21T08:13:48;95276.63;;;3.71;100.00
16834;BME280;8533;48.426;10.868;2022-11-21T08:16:16;95274.64;;;3.75;100.00
16834;BME280;8533;48.426;10.868;2022-11-21T08:18:43;95275.39;;;3.85;100.00
16834;BME280;8533;48.426;10.868;2022-11-21T08:21:14;95279.33;;;3.99;100.00
16834;BME280;8533;48.426;10.868;2022-11-21T08:23:42;95285.23;;;4.09;100.00
16834;BME280;8533;48.426;10.868;2022-11-21T08:26:09;95279.12;;;4.12;100.00
16834;BME280;8533;48.426;10.868;2022-11-21T08:28:36;95283.10;;;4.17;100.00
16834;BME280;8533;48.426;10.868;2022-11-21T08:31:04;95286.26;;;4.19;100.00
16834;BME280;8533;48.426;10.868;2022-11-21T08:33:33;95285.00;;;4.22;100.00
16834;BME280;8533;48.426;10.868;2022-11-21T08:36:05;95284.78;;;4.23;100.00
16834;BME280;8533;48.426;10.868;2022-11-21T08:38:33;95289.58;;;4.29;100.00
16834;BME280;8533;48.426;10.868;2022-11-21T08:41:00;95295.30;;;4.31;100.00
16834;BME280;8533;48.426;10.868;2022-11-21T08:43:45;95292.77;;;4.34;100.00
16834;BME280;8533;48.426;10.868;2022-11-21T08:46:13;95297.06;;;4.28;100.00
16834;BME280;8533;48.426;10.868;2022-11-21T08:48:40;95294.34;;;4.35;100.00
16834;BME280;8533;48.426;10.868;2022-11-21T08:51:08;95292.77;;;4.34;100.00
16834;BME280;8533;48.426;10.868;2022-11-21T08:53:35;95290.05;;;4.40;100.00
16834;BME280;8533;48.426;10.868;2022-11-21T08:56:03;95293.27;;;4.45;100.00
16834;BME280;8533;48.426;10.868;2022-11-21T08:58:30;95294.22;;;4.53;100.00
16834;BME280;8533;48.426;10.868;2022-11-21T09:00:58;95292.14;;;4.52;100.00
16834;BME280;8533;48.426;10.868;2022-11-21T09:03:26;95285.32;;;4.49;100.00
16834;BME280;8533;48.426;10.868;2022-11-21T09:05:56;95284.81;;;4.49;100.00
16834;BME280;8533;48.426;10.868;2022-11-21T09:08:23;95286.11;;;4.49;100.00
16834;BME280;8533;48.426;10.868;2022-11-21T09:10:51;95282.89;;;4.56;100.00
16834;BME280;8533;48.426;10.868;2022-11-21T09:13:19;95276.34;;;4.66;100.00
16834;BME280;8533;48.426;10.868;2022-11-21T09:15:46;95269.64;;;4.67;100.00
16834;BME280;8533;48.426;10.868;2022-11-21T09:18:31;95274.63;;;4.71;100.00
16834;BME280;8533;48.426;10.868;2022-11-21T09:20:59;95276.71;;;4.72;100.00
16834;BME280;8533;48.426;10.868;2022-11-21T09:23:26;95275.05;;;4.66;100.00
16834;BME280;8533;48.426;10.868;2022-11-21T09:25:54;95266.61;;;4.70;100.00
16834;BME280;8533;48.426;10.868;2022-11-21T09:28:21;95269.56;;;4.76;100.00
16834;BME280;8533;48.426;10.868;2022-11-21T09:30:49;95264.02;;;4.84;100.00
16834;BME280;8533;48.426;10.868;2022-11-21T09:33:16;95262.87;;;4.92;100.00
16834;BME280;8533;48.426;10.868;2022-11-21T09:35:44;95266.27;;;4.95;100.00
16834;BME280;8533;48.426;10.868;2022-11-21T09:38:11;95262.27;;;5.02;100.00
16834;BME280;8533;48.426;10.868;2022-11-21T09:40:42;95265.91;;;5.03;100.00
16834;BME280;8533;48.426;10.868;2022-11-21T09:43:38;95265.73;;;5.07;100.00
16834;BME280;8533;48.426;10.868;2022-11-21T09:48:58;95258.88;;;5.15;100.00
16834;BME280;8533;48.426;10.868;2022-11-21T09:51:14;95257.21;;;5.23;100.00
16834;BME280;8533;48.426;10.868;2022-11-21T09:54:02;95261.19;;;5.43;100.00
16834;BME280;8533;48.426;10.868;2022-11-21T09:56:34;95258.12;;;5.62;100.00
16834;BME280;8533;48.426;10.868;2022-11-21T10:01:48;95252.40;;;5.94;100.00
16834;BME280;8533;48.426;10.868;2022-11-21T10:04:15;95249.90;;;5.99;100.00
16834;BME280;8533;48.426;10.868;2022-11-21T10:06:56;95254.81;;;5.98;100.00
16834;BME280;8533;48.426;10.868;2022-11-21T10:09:28;95248.73;;;5.92;99.18
16834;BME280;8533;48.426;10.868;2022-11-21T10:12:01;95225.73;;;5.82;98.55
16834;BME280;8533;48.426;10.868;2022-11-21T10:20:57;95234.38;;;5.87;98.55
16834;BME280;8533;48.426;10.868;2022-11-21T10:23:39;95229.55;;;5.93;99.62
16834;BME280;8533;48.426;10.868;2022-11-21T10:26:21;95216.30;;;5.92;98.94
16834;BME280;8533;48.426;10.868;2022-11-21T10:28:56;95223.72;;;6.03;96.54
16834;BME280;8533;48.426;10.868;2022-11-21T10:31:24;95223.39;;;5.97;96.42
16834;BME280;8533;48.426;10.868;2022-11-21T10:33:53;95220.85;;;6.02;96.17
16834;BME280;8533;48.426;10.868;2022-11-21T10:36:26;95222.06;;;6.13;97.83
16834;BME280;8533;48.426;10.868;2022-11-21T10:38:57;95219.42;;;6.30;96.73
16834;BME280;8533;48.426;10.868;2022-11-21T10:42:03;95217.80;;;6.46;95.30
16834;BME280;8533;48.426;10.868;2022-11-21T10:44:29;95223.65;;;6.58;93.92
16834;BME280;8533;48.426;10.868;2022-11-21T10:47:27;95218.19;;;6.79;95.18
16834;BME280;8533;48.426;10.868;2022-11-21T10:49:59;95212.40;;;6.99;93.79
16834;BME280;8533;48.426;10.868;2022-11-21T10:52:25;95196.70;;;7.15;90.39
16834;BME280;8533;48.426;10.868;2022-11-21T10:55:07;95193.92;;;7.24;88.34
16834;BME280;8533;48.426;10.868;2022-11-21T10:57:38;95184.03;;;7.21;84.49
16834;BME280;8533;48.426;10.868;2022-11-21T11:00:15;95181.67;;;7.22;85.51
16834;BME280;8533;48.426;10.868;2022-11-21T11:02:57;95166.11;;;7.25;85.00
16834;BME280;8533;48.426;10.868;2022-11-21T11:08:08;95166.80;;;7.13;81.90
16834;BME280;8533;48.426;10.868;2022-11-21T11:10:41;95170.36;;;7.07;83.68
16834;BME280;8533;48.426;10.868;2022-11-21T11:13:20;95174.26;;;7.07;83.80
16834;BME280;8533;48.426;10.868;2022-11-21T11:16:03;95167.25;;;7.07;84.44
16834;BME280;8533;48.426;10.868;2022-11-21T11:18:32;95157.80;;;6.99;84.94
16834;BME280;8533;48.426;10.868;2022-11-21T11:21:18;95158.66;;;6.77;84.49
16834;BME280;8533;48.426;10.868;2022-11-21T11:23:48;95155.16;;;6.67;83.95
16834;BME280;8533;48.426;10.868;2022-11-21T11:26:24;95145.98;;;6.59;85.28
16834;BME280;8533;48.426;10.868;2022-11-21T11:28:52;95140.31;;;6.62;85.15
16834;BME280;8533;48.426;10.868;2022-11-21T11:31:21;95140.42;;;6.72;86.08
16834;BME280;8533;48.426;10.868;2022-11-21T11:33:53;95136.33;;;6.79;84.99
16834;BME280;8533;48.426;10.868;2022-11-21T11:36:35;95136.09;;;6.83;85.05
16834;BME280;8533;48.426;10.868;2022-11-21T11:39:05;95134.99;;;6.76;83.43
16834;BME280;8533;48.426;10.868;2022-11-21T11:47:47;95122.72;;;6.69;83.73
16834;BME280;8533;48.426;10.868;2022-11-21T11:50:32;95119.30;;;6.66;84.52
16834;BME280;8533;48.426;10.868;2022-11-21T11:55:46;95118.34;;;6.75;82.01
16834;BME280;8533;48.426;10.868;2022-11-21T11:58:31;95118.17;;;6.84;83.21
16834;BME280;8533;48.426;10.868;2022-11-21T12:04:11;95105.84;;;7.01;84.32
16834;BME280;8533;48.426;10.868;2022-11-21T12:06:59;95093.66;;;7.04;82.87
16834;BME280;8533;48.426;10.868;2022-11-21T12:23:19;95041.95;;;7.55;74.73
16834;BME280;8533;48.426;10.868;2022-11-21T12:28:37;95044.09;;;7.65;73.38
16834;BME280;8533;48.426;10.868;2022-11-21T12:31:07;95043.05;;;7.64;73.35
16834;BME280;8533;48.426;10.868;2022-11-21T12:33:33;95038.38;;;7.66;73.80
16834;BME280;8533;48.426;10.868;2022-11-21T12:36:28;95039.73;;;7.76;76.04
16834;BME280;8533;48.426;10.868;2022-11-21T12:39:31;95033.48;;;7.80;73.12
16834;BME280;8533;48.426;10.868;2022-11-21T12:42:11;95019.23;;;7.92;72.54
16834;BME280;8533;48.426;10.868;2022-11-21T12:45:00;95022.95;;;8.17;71.07
16834;BME280;8533;48.426;10.868;2022-11-21T12:50:20;95013.64;;;8.46;71.77
16834;BME280;8533;48.426;10.868;2022-11-21T12:53:33;95010.00;;;8.52;70.94
16834;BME280;8533;48.426;10.868;2022-11-21T12:56:27;95006.11;;;8.57;71.00
16834;BME280;8533;48.426;10.868;2022-11-21T12:58:55;94998.28;;;8.77;69.75
16834;BME280;8533;48.426;10.868;2022-11-21T13:01:49;95000.89;;;8.80;68.24
16834;BME280;8533;48.426;10.868;2022-11-21T13:03:59;94988.91;;;8.56;69.58
16834;BME280;8533;48.426;10.868;2022-11-21T13:06:30;94984.97;;;8.38;71.45
16834;BME280;8533;48.426;10.868;2022-11-21T13:08:59;94970.14;;;8.57;71.44
16834;BME280;8533;48.426;10.868;2022-11-21T13:15:07;94968.83;;;8.39;71.61
16834;BME280;8533;48.426;10.868;2022-11-21T13:19:55;94954.50;;;8.39;74.57
16834;BME280;8533;48.426;10.868;2022-11-21T13:30:50;94948.23;;;8.63;70.66
16834;BME280;8533;48.426;10.868;2022-11-21T13:36:32;94931.55;;;8.61;67.10
16834;BME280;8533;48.426;10.868;2022-11-21T13:49:47;94913.09;;;8.35;65.07
16834;BME280;8533;48.426;10.868;2022-11-21T13:52:26;94918.25;;;8.30;65.83
16834;BME280;8533;48.426;10.868;2022-11-21T13:57:38;94909.92;;;8.25;65.81
16834;BME280;8533;48.426;10.868;2022-11-21T14:00:16;94909.64;;;8.07;66.34
16834;BME280;8533;48.426;10.868;2022-11-21T14:03:03;94914.09;;;8.19;67.28
16834;BME280;8533;48.426;10.868;2022-11-21T14:05:32;94905.73;;;8.29;66.20
16834;BME280;8533;48.426;10.868;2022-11-21T14:08:31;94897.70;;;8.41;65.75
16834;BME280;8533;48.426;10.868;2022-11-21T14:10:32;94881.28;;;8.48;66.58
16834;BME280;8533;48.426;10.868;2022-11-21T14:13:01;94877.36;;;8.53;66.09
16834;BME280;8533;48.426;10.868;2022-11-21T14:15:51;94866.42;;;8.56;66.84
16834;BME280;8533;48.426;10.868;2022-11-21T14:18:21;94863.80;;;8.54;68.72
16834;BME280;8533;48.426;10.868;2022-11-21T14:20:57;94855.20;;;8.53;68.71
16834;BME280;8533;48.426;10.868;2022-11-21T14:23:27;94852.10;;;8.51;68.48
16834;BME280;8533;48.426;10.868;2022-11-21T14:25:58;94852.09;;;8.49;66.75
16834;BME280;8533;48.426;10.868;2022-11-21T14:28:30;94854.42;;;8.53;67.68
16834;BME280;8533;48.426;10.868;2022-11-21T14:31:02;94852.34;;;8.45;66.95
16834;BME280;8533;48.426;10.868;2022-11-21T14:33:33;94849.77;;;8.39;65.60
16834;BME280;8533;48.426;10.868;2022-11-21T14:38:44;94852.34;;;8.22;67.65
16834;BME280;8533;48.426;10.868;2022-11-21T14:41:21;94844.27;;;8.05;69.33
16834;BME280;8533;48.426;10.868;2022-11-21T14:44:33;94835.95;;;7.98;66.87
16834;BME280;8533;48.426;10.868;2022-11-21T14:46:19;94828.92;;;7.84;69.23
16834;BME280;8533;48.426;10.868;2022-11-21T14:48:47;94825.25;;;7.72;70.17
16834;BME280;8533;48.426;10.868;2022-11-21T14:51:23;94824.70;;;7.55;70.97